»·PEaware :: N4657 KHHR-KCRQ

N4657 :: KHHR-KCRQ

FLIGHT INFORMATION

Flight Status: Arrived
Operator: Privately registered:
United States
More flights under this callsign
Pilot: Daniel P. (20187)
Aircraft: PILATUS PC-12 EAGLE
(PC12)
More flights by this aircraft type
Origin: KHHR Northrop/Hawthorne Mun
United States
Destination: KCRQ McClellan-Palomar
United States
More flights between these airports :: More routes between these airports
Route: +LIMBO V64 WILMA V25 PACIF V208 OCN
File this flight plan on PilotEdge
Remarks: SCTP 12
Altitude:
(Current/Filed)
90ft
Speed:
(Current/Filed)
200kts
Departed: 05-Oct-18 12:31 PM
Arrived: 05-Oct-18 01:02 PM
Distance/Time
Traveled:
71nm/0:30
Distance/Time
To Go:
Arrived

Flight Plot

Page will automatically refresh every two minutes.

Flight plan parsing failed; only flown route is shown


Map Options




Map Legend


Flown Route
Filed Route
Departure Airport
Arrival Airport
Navaid (VOR, NDB)
Fix

Horizontal Profiles

Position Reports

Time Latitude Longitude Heading Altitude Ground
Speed
05-Oct-18 11:59 33.923433 -118.338201 4 62ft 0kts
05-Oct-18 12:00 33.923433 -118.338201 4 62ft 0kts
05-Oct-18 12:01 33.923433 -118.338201 4 62ft 0kts
05-Oct-18 12:02 33.923433 -118.338201 4 62ft 0kts
05-Oct-18 12:03 33.923433 -118.338201 4 62ft 0kts
05-Oct-18 12:04 33.923433 -118.338201 4 62ft 0kts
05-Oct-18 12:05 33.923433 -118.338201 4 62ft 0kts
05-Oct-18 12:06 33.923433 -118.338201 4 62ft 0kts
05-Oct-18 12:07 33.923433 -118.338201 4 62ft 0kts
05-Oct-18 12:08 33.923433 -118.338201 4 62ft 0kts
05-Oct-18 12:09 33.923433 -118.338201 4 62ft 0kts
05-Oct-18 12:10 33.923433 -118.338201 4 62ft 0kts
05-Oct-18 12:11 33.923433 -118.338201 4 62ft 0kts
05-Oct-18 12:12 33.923433 -118.338201 4 62ft 0kts
05-Oct-18 12:13 33.923433 -118.338201 4 62ft 0kts
05-Oct-18 12:14 33.923433 -118.338201 4 62ft 0kts
05-Oct-18 12:15 33.923433 -118.338201 4 62ft 0kts
05-Oct-18 12:16 33.923433 -118.338201 4 62ft 0kts
05-Oct-18 12:17 33.923434 -118.338201 4 62ft 0kts
05-Oct-18 12:18 33.923434 -118.338201 4 62ft 0kts
05-Oct-18 12:19 33.923434 -118.338201 4 62ft 0kts
05-Oct-18 12:20 33.923433 -118.338201 4 62ft 0kts
05-Oct-18 12:21 33.923433 -118.338201 4 62ft 0kts
05-Oct-18 12:22 33.923433 -118.338201 4 62ft 0kts
05-Oct-18 12:23 33.923433 -118.338201 4 62ft 0kts
05-Oct-18 12:24 33.923433 -118.338201 4 62ft 0kts
05-Oct-18 12:25 33.923433 -118.338201 4 62ft 0kts
05-Oct-18 12:26 33.923433 -118.338201 4 62ft 0kts
05-Oct-18 12:27 33.923433 -118.338201 4 62ft 0kts
05-Oct-18 12:28 33.923487 -118.338045 130 61ft 4kts
05-Oct-18 12:29 33.923180 -118.336655 88 60ft 12kts
05-Oct-18 12:30 33.923398 -118.332057 84 59ft 9kts
05-Oct-18 12:31 33.923388 -118.331584 136 59ft 0kts
05-Oct-18 12:32 33.923344 -118.331543 148 59ft 3kts
05-Oct-18 12:33 33.922053 -118.346533 266 510ft 103kts
05-Oct-18 12:34 33.901336 -118.377019 221 2041ft 149kts
05-Oct-18 12:35 33.864441 -118.413734 221 3013ft 208kts
05-Oct-18 12:36 33.819233 -118.455930 195 4309ft 204kts
05-Oct-18 12:37 33.766741 -118.446594 126 6078ft 200kts
05-Oct-18 12:38 33.768080 -118.383952 82 7882ft 193kts
05-Oct-18 12:39 33.770462 -118.318698 85 9003ft 221kts
05-Oct-18 12:40 33.757171 -118.244858 135 8995ft 260kts
05-Oct-18 12:41 33.702878 -118.186533 138 8991ft 267kts
05-Oct-18 12:42 33.647273 -118.127737 136 8996ft 267kts
05-Oct-18 12:43 33.593071 -118.070595 135 8991ft 259kts
05-Oct-18 12:44 33.540078 -118.014608 135 8990ft 250kts
05-Oct-18 12:45 33.488458 -117.960008 139 8992ft 248kts
05-Oct-18 12:46 33.436366 -117.905447 138 8992ft 249kts
05-Oct-18 12:47 33.384578 -117.851075 138 8994ft 249kts
05-Oct-18 12:48 33.355475 -117.777454 109 8961ft 246kts
05-Oct-18 12:49 33.331793 -117.702936 109 8156ft 239kts
05-Oct-18 12:50 33.308271 -117.628928 110 7363ft 238kts
05-Oct-18 12:51 33.284904 -117.555786 110 6567ft 225kts
05-Oct-18 12:52 33.264784 -117.490605 110 5758ft 198kts
05-Oct-18 12:53 33.244467 -117.428955 111 5022ft 215kts
05-Oct-18 12:54 33.236697 -117.358592 93 4993ft 218kts
05-Oct-18 12:55 33.231934 -117.288470 94 4991ft 218kts
05-Oct-18 12:56 33.231172 -117.219753 88 4597ft 212kts
05-Oct-18 12:57 33.230063 -117.153449 108 4087ft 178kts
05-Oct-18 12:58 33.203323 -117.120976 164 3929ft 131kts
05-Oct-18 12:59 33.169592 -117.124233 210 3150ft 117kts
05-Oct-18 13:00 33.149238 -117.152624 251 2491ft 115kts
05-Oct-18 13:01 33.142915 -117.188816 259 1852ft 116kts
05-Oct-18 13:02 33.137081 -117.225816 258 1212ft 115kts
05-Oct-18 13:03 33.131848 -117.257711 258 607ft 90kts
05-Oct-18 13:04 33.128747 -117.279865 301 308ft 7kts
05-Oct-18 13:05 33.129023 -117.280330 288 309ft 5kts
05-Oct-18 13:06 33.129226 -117.281410 159 310ft 1kts
05-Oct-18 13:07 33.129252 -117.281418 173 310ft 0kts
05-Oct-18 13:08 33.129252 -117.281418 173 310ft 0kts
05-Oct-18 13:09 33.129252 -117.281418 173 310ft 0kts
05-Oct-18 13:10 33.129252 -117.281418 173 310ft 0kts
05-Oct-18 13:11 33.129252 -117.281418 173 310ft 0kts
05-Oct-18 13:12 33.129252 -117.281418 173 310ft 0kts
05-Oct-18 13:13 33.129252 -117.281418 173 310ft 0kts
05-Oct-18 13:14 33.129252 -117.281418 173 310ft 0kts
05-Oct-18 13:15 33.129252 -117.281418 173 310ft 0kts
05-Oct-18 13:16 33.129252 -117.281418 173 310ft 0kts

Navigation Log

Ident Type
Flight plan parsing failed, navigation log unavailable